sensor_id;sensor_type;location;lat;lon;timestamp;P1;P2;P0
55276;PMS5003;41136;51.478;-2.610;2023-11-18T00:01:33;1;1;
55276;PMS5003;41136;51.478;-2.610;2023-11-18T00:03:58;1;1;
55276;PMS5003;41136;51.478;-2.610;2023-11-18T00:06:24;2;2;
55276;PMS5003;41136;51.478;-2.610;2023-11-18T00:08:49;1;1;
55276;PMS5003;41136;51.478;-2.610;2023-11-18T00:11:14;4;2;
55276;PMS5003;41136;51.478;-2.610;2023-11-18T00:13:40;3;3;
55276;PMS5003;41136;51.478;-2.610;2023-11-18T00:16:05;3;3;
55276;PMS5003;41136;51.478;-2.610;2023-11-18T00:18:30;3;3;
55276;PMS5003;41136;51.478;-2.610;2023-11-18T00:20:56;3;2;
55276;PMS5003;41136;51.478;-2.610;2023-11-18T00:23:21;2;2;
55276;PMS5003;41136;51.478;-2.610;2023-11-18T00:25:46;2;2;
55276;PMS5003;41136;51.478;-2.610;2023-11-18T00:28:12;3;2;
55276;PMS5003;41136;51.478;-2.610;2023-11-18T00:30:37;4;3;
55276;PMS5003;41136;51.478;-2.610;2023-11-18T00:33:03;2;2;
55276;PMS5003;41136;51.478;-2.610;2023-11-18T00:35:28;2;2;
55276;PMS5003;41136;51.478;-2.610;2023-11-18T00:37:53;9;2;
55276;PMS5003;41136;51.478;-2.610;2023-11-18T00:40:18;1;1;
55276;PMS5003;41136;51.478;-2.610;2023-11-18T00:42:44;1;1;
55276;PMS5003;41136;51.478;-2.610;2023-11-18T00:45:09;1;1;
55276;PMS5003;41136;51.478;-2.610;2023-11-18T00:47:34;2;2;
55276;PMS5003;41136;51.478;-2.610;2023-11-18T00:50:00;2;2;
55276;PMS5003;41136;51.478;-2.610;2023-11-18T00:52:25;1;1;
55276;PMS5003;41136;51.478;-2.610;2023-11-18T00:59:20;1;1;
55276;PMS5003;41136;51.478;-2.610;2023-11-18T01:01:45;1;1;
55276;PMS5003;41136;51.478;-2.610;2023-11-18T01:04:11;1;1;
55276;PMS5003;41136;51.478;-2.610;2023-11-18T01:06:36;2;0;
55276;PMS5003;41136;51.478;-2.610;2023-11-18T01:09:02;1;1;
55276;PMS5003;41136;51.478;-2.610;2023-11-18T01:11:27;0;0;
55276;PMS5003;41136;51.478;-2.610;2023-11-18T01:13:52;1;1;
55276;PMS5003;41136;51.478;-2.610;2023-11-18T01:16:17;2;0;
55276;PMS5003;41136;51.478;-2.610;2023-11-18T01:18:43;0;0;
55276;PMS5003;41136;51.478;-2.610;2023-11-18T01:21:08;1;0;
55276;PMS5003;41136;51.478;-2.610;2023-11-18T01:23:33;1;1;
55276;PMS5003;41136;51.478;-2.610;2023-11-18T01:25:59;0;0;
55276;PMS5003;41136;51.478;-2.610;2023-11-18T01:28:24;0;0;
55276;PMS5003;41136;51.478;-2.610;2023-11-18T01:30:49;0;0;
55276;PMS5003;41136;51.478;-2.610;2023-11-18T01:33:15;0;0;
55276;PMS5003;41136;51.478;-2.610;2023-11-18T01:35:40;0;0;
55276;PMS5003;41136;51.478;-2.610;2023-11-18T01:38:05;0;0;
55276;PMS5003;41136;51.478;-2.610;2023-11-18T01:40:31;0;0;
55276;PMS5003;41136;51.478;-2.610;2023-11-18T01:42:56;0;0;
55276;PMS5003;41136;51.478;-2.610;2023-11-18T01:45:21;2;0;
55276;PMS5003;41136;51.478;-2.610;2023-11-18T01:47:47;0;0;
55276;PMS5003;41136;51.478;-2.610;2023-11-18T01:50:12;0;0;
55276;PMS5003;41136;51.478;-2.610;2023-11-18T01:52:37;0;0;
55276;PMS5003;41136;51.478;-2.610;2023-11-18T01:55:03;0;0;
55276;PMS5003;41136;51.478;-2.610;2023-11-18T01:57:28;0;0;
55276;PMS5003;41136;51.478;-2.610;2023-11-18T01:59:53;1;1;
55276;PMS5003;41136;51.478;-2.610;2023-11-18T02:02:19;0;0;
55276;PMS5003;41136;51.478;-2.610;2023-11-18T02:04:44;0;0;
55276;PMS5003;41136;51.478;-2.610;2023-11-18T02:07:09;0;0;
55276;PMS5003;41136;51.478;-2.610;2023-11-18T02:09:35;0;0;
55276;PMS5003;41136;51.478;-2.610;2023-11-18T02:12:00;0;0;
55276;PMS5003;41136;51.478;-2.610;2023-11-18T02:14:26;0;0;
55276;PMS5003;41136;51.478;-2.610;2023-11-18T02:16:50;0;0;
55276;PMS5003;41136;51.478;-2.610;2023-11-18T02:19:19;0;0;
55276;PMS5003;41136;51.478;-2.610;2023-11-18T02:21:41;0;0;
55276;PMS5003;41136;51.478;-2.610;2023-11-18T02:24:07;0;0;
55276;PMS5003;41136;51.478;-2.610;2023-11-18T02:26:32;0;0;
55276;PMS5003;41136;51.478;-2.610;2023-11-18T02:28:57;0;0;
55276;PMS5003;41136;51.478;-2.610;2023-11-18T02:31:25;0;0;
55276;PMS5003;41136;51.478;-2.610;2023-11-18T02:33:50;0;0;
55276;PMS5003;41136;51.478;-2.610;2023-11-18T02:36:13;0;0;
55276;PMS5003;41136;51.478;-2.610;2023-11-18T02:38:39;0;0;
55276;PMS5003;41136;51.478;-2.610;2023-11-18T02:41:09;0;0;
55276;PMS5003;41136;51.478;-2.610;2023-11-18T02:43:29;0;0;
55276;PMS5003;41136;51.478;-2.610;2023-11-18T02:45:54;0;0;
55276;PMS5003;41136;51.478;-2.610;2023-11-18T02:48:20;0;0;
55276;PMS5003;41136;51.478;-2.610;2023-11-18T02:50:45;0;0;
55276;PMS5003;41136;51.478;-2.610;2023-11-18T02:53:10;0;0;
55276;PMS5003;41136;51.478;-2.610;2023-11-18T02:55:36;0;0;
55276;PMS5003;41136;51.478;-2.610;2023-11-18T02:58:01;0;0;
55276;PMS5003;41136;51.478;-2.610;2023-11-18T03:00:26;0;0;
55276;PMS5003;41136;51.478;-2.610;2023-11-18T03:02:52;0;0;
55276;PMS5003;41136;51.478;-2.610;2023-11-18T03:05:17;0;0;
55276;PMS5003;41136;51.478;-2.610;2023-11-18T03:07:43;0;0;
55276;PMS5003;41136;51.478;-2.610;2023-11-18T03:10:08;0;0;
55276;PMS5003;41136;51.478;-2.610;2023-11-18T03:12:33;0;0;
55276;PMS5003;41136;51.478;-2.610;2023-11-18T03:14:58;0;0;
55276;PMS5003;41136;51.478;-2.610;2023-11-18T03:17:24;0;0;
55276;PMS5003;41136;51.478;-2.610;2023-11-18T03:19:49;0;0;
55276;PMS5003;41136;51.478;-2.610;2023-11-18T03:22:14;0;0;
55276;PMS5003;41136;51.478;-2.610;2023-11-18T03:24:40;0;0;
55276;PMS5003;41136;51.478;-2.610;2023-11-18T03:27:05;0;0;
55276;PMS5003;41136;51.478;-2.610;2023-11-18T03:29:30;0;0;
55276;PMS5003;41136;51.478;-2.610;2023-11-18T03:31:55;1;0;
55276;PMS5003;41136;51.478;-2.610;2023-11-18T03:34:21;0;0;
55276;PMS5003;41136;51.478;-2.610;2023-11-18T03:36:46;0;0;
55276;PMS5003;41136;51.478;-2.610;2023-11-18T03:39:11;0;0;
55276;PMS5003;41136;51.478;-2.610;2023-11-18T03:41:37;0;0;
55276;PMS5003;41136;51.478;-2.610;2023-11-18T03:44:02;0;0;
55276;PMS5003;41136;51.478;-2.610;2023-11-18T03:46:27;0;0;
55276;PMS5003;41136;51.478;-2.610;2023-11-18T03:48:53;0;0;
55276;PMS5003;41136;51.478;-2.610;2023-11-18T03:51:18;0;0;
55276;PMS5003;41136;51.478;-2.610;2023-11-18T03:53:43;1;0;
55276;PMS5003;41136;51.478;-2.610;2023-11-18T03:56:09;0;0;
55276;PMS5003;41136;51.478;-2.610;2023-11-18T03:58:34;0;0;
55276;PMS5003;41136;51.478;-2.610;2023-11-18T04:00:59;1;1;
55276;PMS5003;41136;51.478;-2.610;2023-11-18T04:03:25;0;0;
55276;PMS5003;41136;51.478;-2.610;2023-11-18T04:05:50;0;0;
55276;PMS5003;41136;51.478;-2.610;2023-11-18T04:08:15;0;0;
55276;PMS5003;41136;51.478;-2.610;2023-11-18T04:10:40;0;0;
55276;PMS5003;41136;51.478;-2.610;2023-11-18T04:13:06;0;0;
55276;PMS5003;41136;51.478;-2.610;2023-11-18T04:15:31;0;0;
55276;PMS5003;41136;51.478;-2.610;2023-11-18T04:17:56;0;0;
55276;PMS5003;41136;51.478;-2.610;2023-11-18T04:20:22;0;0;
55276;PMS5003;41136;51.478;-2.610;2023-11-18T04:22:47;0;0;
55276;PMS5003;41136;51.478;-2.610;2023-11-18T04:25:12;0;0;
55276;PMS5003;41136;51.478;-2.610;2023-11-18T04:27:38;0;0;
55276;PMS5003;41136;51.478;-2.610;2023-11-18T04:30:03;0;0;
55276;PMS5003;41136;51.478;-2.610;2023-11-18T04:32:28;1;0;
55276;PMS5003;41136;51.478;-2.610;2023-11-18T04:34:54;0;0;
55276;PMS5003;41136;51.478;-2.610;2023-11-18T04:37:19;1;0;
55276;PMS5003;41136;51.478;-2.610;2023-11-18T04:39:44;0;0;
55276;PMS5003;41136;51.478;-2.610;2023-11-18T04:42:09;1;1;
55276;PMS5003;41136;51.478;-2.610;2023-11-18T04:44:35;0;0;
55276;PMS5003;41136;51.478;-2.610;2023-11-18T04:47:00;1;0;
55276;PMS5003;41136;51.478;-2.610;2023-11-18T04:49:25;0;0;
55276;PMS5003;41136;51.478;-2.610;2023-11-18T04:51:51;0;0;
55276;PMS5003;41136;51.478;-2.610;2023-11-18T04:54:16;0;0;
55276;PMS5003;41136;51.478;-2.610;2023-11-18T04:56:42;2;1;
55276;PMS5003;41136;51.478;-2.610;2023-11-18T04:59:06;1;1;
55276;PMS5003;41136;51.478;-2.610;2023-11-18T05:01:32;0;0;
55276;PMS5003;41136;51.478;-2.610;2023-11-18T05:03:58;0;0;
55276;PMS5003;41136;51.478;-2.610;2023-11-18T05:06:22;0;0;
55276;PMS5003;41136;51.478;-2.610;2023-11-18T05:08:48;1;1;
55276;PMS5003;41136;51.478;-2.610;2023-11-18T05:11:13;0;0;
55276;PMS5003;41136;51.478;-2.610;2023-11-18T05:13:38;1;0;
55276;PMS5003;41136;51.478;-2.610;2023-11-18T05:18:29;0;0;
55276;PMS5003;41136;51.478;-2.610;2023-11-18T05:20:54;0;0;
55276;PMS5003;41136;51.478;-2.610;2023-11-18T05:23:20;0;0;
55276;PMS5003;41136;51.478;-2.610;2023-11-18T05:25:45;0;0;
55276;PMS5003;41136;51.478;-2.610;2023-11-18T05:28:10;0;0;
55276;PMS5003;41136;51.478;-2.610;2023-11-18T05:30:35;4;1;
55276;PMS5003;41136;51.478;-2.610;2023-11-18T05:33:02;0;0;
55276;PMS5003;41136;51.478;-2.610;2023-11-18T05:35:26;0;0;
55276;PMS5003;41136;51.478;-2.610;2023-11-18T05:37:51;0;0;
55276;PMS5003;41136;51.478;-2.610;2023-11-18T05:40:16;1;1;
55276;PMS5003;41136;51.478;-2.610;2023-11-18T05:42:42;0;0;
55276;PMS5003;41136;51.478;-2.610;2023-11-18T05:45:07;0;0;
55276;PMS5003;41136;51.478;-2.610;2023-11-18T05:47:32;1;0;
55276;PMS5003;41136;51.478;-2.610;2023-11-18T05:52:04;0;0;
55276;PMS5003;41136;51.478;-2.610;2023-11-18T05:54:29;0;0;
55276;PMS5003;41136;51.478;-2.610;2023-11-18T05:56:54;1;0;
55276;PMS5003;41136;51.478;-2.610;2023-11-18T05:59:19;0;0;
55276;PMS5003;41136;51.478;-2.610;2023-11-18T06:01:44;0;0;
55276;PMS5003;41136;51.478;-2.610;2023-11-18T06:04:10;0;0;
55276;PMS5003;41136;51.478;-2.610;2023-11-18T06:06:35;0;0;
55276;PMS5003;41136;51.478;-2.610;2023-11-18T06:09:00;0;0;
55276;PMS5003;41136;51.478;-2.610;2023-11-18T06:11:26;0;0;
55276;PMS5003;41136;51.478;-2.610;2023-11-18T06:13:51;0;0;
55276;PMS5003;41136;51.478;-2.610;2023-11-18T06:16:17;0;0;
55276;PMS5003;41136;51.478;-2.610;2023-11-18T06:18:42;0;0;
55276;PMS5003;41136;51.478;-2.610;2023-11-18T06:21:07;0;0;
55276;PMS5003;41136;51.478;-2.610;2023-11-18T06:23:32;1;1;
55276;PMS5003;41136;51.478;-2.610;2023-11-18T06:25:57;0;0;
55276;PMS5003;41136;51.478;-2.610;2023-11-18T06:28:22;0;0;
55276;PMS5003;41136;51.478;-2.610;2023-11-18T06:30:48;0;0;
55276;PMS5003;41136;51.478;-2.610;2023-11-18T06:33:13;0;0;
55276;PMS5003;41136;51.478;-2.610;2023-11-18T06:35:38;0;0;
55276;PMS5003;41136;51.478;-2.610;2023-11-18T06:38:03;0;0;
55276;PMS5003;41136;51.478;-2.610;2023-11-18T06:40:29;1;1;
55276;PMS5003;41136;51.478;-2.610;2023-11-18T06:42:54;0;0;
55276;PMS5003;41136;51.478;-2.610;2023-11-18T06:45:19;0;0;
55276;PMS5003;41136;51.478;-2.610;2023-11-18T06:47:44;0;0;
55276;PMS5003;41136;51.478;-2.610;2023-11-18T06:50:10;0;0;
55276;PMS5003;41136;51.478;-2.610;2023-11-18T06:52:36;0;0;
55276;PMS5003;41136;51.478;-2.610;2023-11-18T06:55:00;0;0;
55276;PMS5003;41136;51.478;-2.610;2023-11-18T06:57:25;1;1;
55276;PMS5003;41136;51.478;-2.610;2023-11-18T06:59:51;0;0;
55276;PMS5003;41136;51.478;-2.610;2023-11-18T07:02:16;0;0;
55276;PMS5003;41136;51.478;-2.610;2023-11-18T07:04:41;0;0;
55276;PMS5003;41136;51.478;-2.610;2023-11-18T07:07:06;0;0;
55276;PMS5003;41136;51.478;-2.610;2023-11-18T07:09:32;0;0;
55276;PMS5003;41136;51.478;-2.610;2023-11-18T07:11:57;0;0;
55276;PMS5003;41136;51.478;-2.610;2023-11-18T07:14:22;0;0;
55276;PMS5003;41136;51.478;-2.610;2023-11-18T07:16:47;0;0;
55276;PMS5003;41136;51.478;-2.610;2023-11-18T07:19:13;0;0;
55276;PMS5003;41136;51.478;-2.610;2023-11-18T07:21:38;2;0;
55276;PMS5003;41136;51.478;-2.610;2023-11-18T07:24:03;0;0;
55276;PMS5003;41136;51.478;-2.610;2023-11-18T07:26:29;0;0;
55276;PMS5003;41136;51.478;-2.610;2023-11-18T07:28:54;0;0;
55276;PMS5003;41136;51.478;-2.610;2023-11-18T07:31:19;0;0;
55276;PMS5003;41136;51.478;-2.610;2023-11-18T07:33:44;0;0;
55276;PMS5003;41136;51.478;-2.610;2023-11-18T07:36:10;0;0;
55276;PMS5003;41136;51.478;-2.610;2023-11-18T07:38:35;0;0;
55276;PMS5003;41136;51.478;-2.610;2023-11-18T07:41:00;0;0;
55276;PMS5003;41136;51.478;-2.610;2023-11-18T07:43:25;0;0;
55276;PMS5003;41136;51.478;-2.610;2023-11-18T07:45:50;0;0;
55276;PMS5003;41136;51.478;-2.610;2023-11-18T07:48:16;1;1;
55276;PMS5003;41136;51.478;-2.610;2023-11-18T07:50:41;0;0;
55276;PMS5003;41136;51.478;-2.610;2023-11-18T07:53:06;0;0;
55276;PMS5003;41136;51.478;-2.610;2023-11-18T07:55:31;0;0;
55276;PMS5003;41136;51.478;-2.610;2023-11-18T07:57:57;0;0;
55276;PMS5003;41136;51.478;-2.610;2023-11-18T08:00:22;0;0;
55276;PMS5003;41136;51.478;-2.610;2023-11-18T08:02:47;0;0;
55276;PMS5003;41136;51.478;-2.610;2023-11-18T08:05:12;0;0;
55276;PMS5003;41136;51.478;-2.610;2023-11-18T08:07:38;0;0;
55276;PMS5003;41136;51.478;-2.610;2023-11-18T08:10:03;0;0;
55276;PMS5003;41136;51.478;-2.610;2023-11-18T08:12:28;0;0;
55276;PMS5003;41136;51.478;-2.610;2023-11-18T08:14:53;0;0;
55276;PMS5003;41136;51.478;-2.610;2023-11-18T08:17:18;3;0;
55276;PMS5003;41136;51.478;-2.610;2023-11-18T08:19:44;0;0;
55276;PMS5003;41136;51.478;-2.610;2023-11-18T08:22:09;0;0;
55276;PMS5003;41136;51.478;-2.610;2023-11-18T08:24:34;0;0;
55276;PMS5003;41136;51.478;-2.610;2023-11-18T08:26:59;0;0;
55276;PMS5003;41136;51.478;-2.610;2023-11-18T08:29:25;0;0;
55276;PMS5003;41136;51.478;-2.610;2023-11-18T08:31:50;1;0;
55276;PMS5003;41136;51.478;-2.610;2023-11-18T08:34:15;0;0;
55276;PMS5003;41136;51.478;-2.610;2023-11-18T08:36:40;0;0;
55276;PMS5003;41136;51.478;-2.610;2023-11-18T08:39:06;0;0;
55276;PMS5003;41136;51.478;-2.610;2023-11-18T08:41:31;0;0;
55276;PMS5003;41136;51.478;-2.610;2023-11-18T08:43:56;0;0;
55276;PMS5003;41136;51.478;-2.610;2023-11-18T08:46:21;0;0;
55276;PMS5003;41136;51.478;-2.610;2023-11-18T08:48:47;0;0;
55276;PMS5003;41136;51.478;-2.610;2023-11-18T08:51:12;0;0;
55276;PMS5003;41136;51.478;-2.610;2023-11-18T08:53:37;1;0;
55276;PMS5003;41136;51.478;-2.610;2023-11-18T08:56:02;0;0;
55276;PMS5003;41136;51.478;-2.610;2023-11-18T08:58:28;1;1;
55276;PMS5003;41136;51.478;-2.610;2023-11-18T09:00:56;0;0;
55276;PMS5003;41136;51.478;-2.610;2023-11-18T09:03:19;0;0;
55276;PMS5003;41136;51.478;-2.610;2023-11-18T09:05:44;0;0;
55276;PMS5003;41136;51.478;-2.610;2023-11-18T09:08:09;0;0;
55276;PMS5003;41136;51.478;-2.610;2023-11-18T09:10:34;0;0;
55276;PMS5003;41136;51.478;-2.610;2023-11-18T09:13:00;0;0;
55276;PMS5003;41136;51.478;-2.610;2023-11-18T09:15:25;0;0;
55276;PMS5003;41136;51.478;-2.610;2023-11-18T09:17:50;0;0;
55276;PMS5003;41136;51.478;-2.610;2023-11-18T09:20:15;0;0;
55276;PMS5003;41136;51.478;-2.610;2023-11-18T09:22:40;0;0;
55276;PMS5003;41136;51.478;-2.610;2023-11-18T09:25:06;0;0;
55276;PMS5003;41136;51.478;-2.610;2023-11-18T09:27:31;0;0;
55276;PMS5003;41136;51.478;-2.610;2023-11-18T09:29:56;0;0;
55276;PMS5003;41136;51.478;-2.610;2023-11-18T09:32:23;0;0;
55276;PMS5003;41136;51.478;-2.610;2023-11-18T09:34:47;0;0;
55276;PMS5003;41136;51.478;-2.610;2023-11-18T09:37:12;0;0;
55276;PMS5003;41136;51.478;-2.610;2023-11-18T09:39:37;0;0;
55276;PMS5003;41136;51.478;-2.610;2023-11-18T09:42:04;0;0;
55276;PMS5003;41136;51.478;-2.610;2023-11-18T09:44:28;0;0;
55276;PMS5003;41136;51.478;-2.610;2023-11-18T09:46:53;0;0;
55276;PMS5003;41136;51.478;-2.610;2023-11-18T09:49:21;0;0;
55276;PMS5003;41136;51.478;-2.610;2023-11-18T09:51:44;0;0;
55276;PMS5003;41136;51.478;-2.610;2023-11-18T09:54:10;0;0;
55276;PMS5003;41136;51.478;-2.610;2023-11-18T09:56:35;1;0;
55276;PMS5003;41136;51.478;-2.610;2023-11-18T09:59:02;1;1;
55276;PMS5003;41136;51.478;-2.610;2023-11-18T10:01:25;0;0;
55276;PMS5003;41136;51.478;-2.610;2023-11-18T10:03:49;0;0;
55276;PMS5003;41136;51.478;-2.610;2023-11-18T10:06:15;0;0;
55276;PMS5003;41136;51.478;-2.610;2023-11-18T10:08:40;1;1;
55276;PMS5003;41136;51.478;-2.610;2023-11-18T10:11:05;0;0;
55276;PMS5003;41136;51.478;-2.610;2023-11-18T10:13:31;0;0;
55276;PMS5003;41136;51.478;-2.610;2023-11-18T10:15:56;0;0;
55276;PMS5003;41136;51.478;-2.610;2023-11-18T10:18:21;0;0;
55276;PMS5003;41136;51.478;-2.610;2023-11-18T10:20:47;2;0;
55276;PMS5003;41136;51.478;-2.610;2023-11-18T10:23:12;0;0;
55276;PMS5003;41136;51.478;-2.610;2023-11-18T10:25:37;0;0;
55276;PMS5003;41136;51.478;-2.610;2023-11-18T10:28:02;0;0;
55276;PMS5003;41136;51.478;-2.610;2023-11-18T10:30:27;0;0;
55276;PMS5003;41136;51.478;-2.610;2023-11-18T10:32:56;1;0;
55276;PMS5003;41136;51.478;-2.610;2023-11-18T10:35:18;1;1;
55276;PMS5003;41136;51.478;-2.610;2023-11-18T10:37:43;0;0;
55276;PMS5003;41136;51.478;-2.610;2023-11-18T10:40:09;1;1;
55276;PMS5003;41136;51.478;-2.610;2023-11-18T10:42:34;0;0;
55276;PMS5003;41136;51.478;-2.610;2023-11-18T10:44:59;1;1;
55276;PMS5003;41136;51.478;-2.610;2023-11-18T10:47:25;3;1;
55276;PMS5003;41136;51.478;-2.610;2023-11-18T10:49:50;0;0;
55276;PMS5003;41136;51.478;-2.610;2023-11-18T10:52:15;3;1;
55276;PMS5003;41136;51.478;-2.610;2023-11-18T10:57:05;0;0;
55276;PMS5003;41136;51.478;-2.610;2023-11-18T10:59:30;2;1;
55276;PMS5003;41136;51.478;-2.610;2023-11-18T11:01:55;0;0;
55276;PMS5003;41136;51.478;-2.610;2023-11-18T11:04:21;0;0;
55276;PMS5003;41136;51.478;-2.610;2023-11-18T11:06:48;0;0;
55276;PMS5003;41136;51.478;-2.610;2023-11-18T11:09:11;1;1;
55276;PMS5003;41136;51.478;-2.610;2023-11-18T11:11:39;1;1;
55276;PMS5003;41136;51.478;-2.610;2023-11-18T11:14:03;4;4;
55276;PMS5003;41136;51.478;-2.610;2023-11-18T11:16:28;1;1;
55276;PMS5003;41136;51.478;-2.610;2023-11-18T11:18:53;1;1;
55276;PMS5003;41136;51.478;-2.610;2023-11-18T11:21:19;1;1;
55276;PMS5003;41136;51.478;-2.610;2023-11-18T11:23:47;1;1;
55276;PMS5003;41136;51.478;-2.610;2023-11-18T11:26:12;3;1;
55276;PMS5003;41136;51.478;-2.610;2023-11-18T11:28:37;1;1;
55276;PMS5003;41136;51.478;-2.610;2023-11-18T11:31:02;3;2;
55276;PMS5003;41136;51.478;-2.610;2023-11-18T11:33:26;2;2;
55276;PMS5003;41136;51.478;-2.610;2023-11-18T11:35:52;0;0;
55276;PMS5003;41136;51.478;-2.610;2023-11-18T11:38:15;1;1;
55276;PMS5003;41136;51.478;-2.610;2023-11-18T11:40:41;1;1;
55276;PMS5003;41136;51.478;-2.610;2023-11-18T11:43:06;1;1;
55276;PMS5003;41136;51.478;-2.610;2023-11-18T11:45:31;2;2;
55276;PMS5003;41136;51.478;-2.610;2023-11-18T11:47:57;2;2;
55276;PMS5003;41136;51.478;-2.610;2023-11-18T11:50:24;3;3;
55276;PMS5003;41136;51.478;-2.610;2023-11-18T11:52:48;0;0;
55276;PMS5003;41136;51.478;-2.610;2023-11-18T11:55:17;3;2;
55276;PMS5003;41136;51.478;-2.610;2023-11-18T11:57:38;0;0;
55276;PMS5003;41136;51.478;-2.610;2023-11-18T12:00:03;3;2;
55276;PMS5003;41136;51.478;-2.610;2023-11-18T12:02:28;3;2;
55276;PMS5003;41136;51.478;-2.610;2023-11-18T12:04:53;2;2;
55276;PMS5003;41136;51.478;-2.610;2023-11-18T12:07:18;1;1;
55276;PMS5003;41136;51.478;-2.610;2023-11-18T12:09:44;5;2;
55276;PMS5003;41136;51.478;-2.610;2023-11-18T12:14:35;3;3;
55276;PMS5003;41136;51.478;-2.610;2023-11-18T12:17:01;3;3;
55276;PMS5003;41136;51.478;-2.610;2023-11-18T12:24:15;4;4;
55276;PMS5003;41136;51.478;-2.610;2023-11-18T12:26:40;2;2;
55276;PMS5003;41136;51.478;-2.610;2023-11-18T12:34:00;6;6;
55276;PMS5003;41136;51.478;-2.610;2023-11-18T12:41:16;3;1;
55276;PMS5003;41136;51.478;-2.610;2023-11-18T12:43:46;5;5;
55276;PMS5003;41136;51.478;-2.610;2023-11-18T12:46:11;5;4;
55276;PMS5003;41136;51.478;-2.610;2023-11-18T12:48:28;2;2;
55276;PMS5003;41136;51.478;-2.610;2023-11-18T12:50:53;2;2;
55276;PMS5003;41136;51.478;-2.610;2023-11-18T12:53:19;4;1;
55276;PMS5003;41136;51.478;-2.610;2023-11-18T12:55:44;2;2;
55276;PMS5003;41136;51.478;-2.610;2023-11-18T12:58:09;5;3;
55276;PMS5003;41136;51.478;-2.610;2023-11-18T13:00:34;3;2;
55276;PMS5003;41136;51.478;-2.610;2023-11-18T13:03:00;3;2;
55276;PMS5003;41136;51.478;-2.610;2023-11-18T13:05:25;1;1;
55276;PMS5003;41136;51.478;-2.610;2023-11-18T13:07:50;3;2;
55276;PMS5003;41136;51.478;-2.610;2023-11-18T13:10:15;4;3;
55276;PMS5003;41136;51.478;-2.610;2023-11-18T13:12:41;3;1;
55276;PMS5003;41136;51.478;-2.610;2023-11-18T13:15:06;2;2;
55276;PMS5003;41136;51.478;-2.610;2023-11-18T13:17:31;4;3;
55276;PMS5003;41136;51.478;-2.610;2023-11-18T13:19:56;3;3;
55276;PMS5003;41136;51.478;-2.610;2023-11-18T13:22:22;5;4;
55276;PMS5003;41136;51.478;-2.610;2023-11-18T13:24:47;7;3;
55276;PMS5003;41136;51.478;-2.610;2023-11-18T13:27:13;4;3;
55276;PMS5003;41136;51.478;-2.610;2023-11-18T13:29:38;4;4;
55276;PMS5003;41136;51.478;-2.610;2023-11-18T13:32:03;4;3;
55276;PMS5003;41136;51.478;-2.610;2023-11-18T13:34:28;5;3;
55276;PMS5003;41136;51.478;-2.610;2023-11-18T13:36:53;2;2;
55276;PMS5003;41136;51.478;-2.610;2023-11-18T13:39:18;4;2;
55276;PMS5003;41136;51.478;-2.610;2023-11-18T13:41:44;4;3;
55276;PMS5003;41136;51.478;-2.610;2023-11-18T13:44:09;5;3;
55276;PMS5003;41136;51.478;-2.610;2023-11-18T13:46:37;3;3;
55276;PMS5003;41136;51.478;-2.610;2023-11-18T13:49:00;4;4;
55276;PMS5003;41136;51.478;-2.610;2023-11-18T13:51:26;2;2;
55276;PMS5003;41136;51.478;-2.610;2023-11-18T13:53:52;3;3;
55276;PMS5003;41136;51.478;-2.610;2023-11-18T13:56:18;4;4;
55276;PMS5003;41136;51.478;-2.610;2023-11-18T13:58:42;4;3;
55276;PMS5003;41136;51.478;-2.610;2023-11-18T14:01:08;6;4;
55276;PMS5003;41136;51.478;-2.610;2023-11-18T14:03:32;5;1;
55276;PMS5003;41136;51.478;-2.610;2023-11-18T14:05:58;3;3;
55276;PMS5003;41136;51.478;-2.610;2023-11-18T14:08:23;2;2;
55276;PMS5003;41136;51.478;-2.610;2023-11-18T14:10:48;6;4;
55276;PMS5003;41136;51.478;-2.610;2023-11-18T14:13:14;5;4;
55276;PMS5003;41136;51.478;-2.610;2023-11-18T14:15:39;9;4;
55276;PMS5003;41136;51.478;-2.610;2023-11-18T14:18:04;9;6;
55276;PMS5003;41136;51.478;-2.610;2023-11-18T14:20:30;5;3;
55276;PMS5003;41136;51.478;-2.610;2023-11-18T14:22:55;4;4;
55276;PMS5003;41136;51.478;-2.610;2023-11-18T14:25:21;3;3;
55276;PMS5003;41136;51.478;-2.610;2023-11-18T14:27:46;7;2;
55276;PMS5003;41136;51.478;-2.610;2023-11-18T14:30:12;5;4;
55276;PMS5003;41136;51.478;-2.610;2023-11-18T14:32:37;6;4;
55276;PMS5003;41136;51.478;-2.610;2023-11-18T14:35:02;3;3;
55276;PMS5003;41136;51.478;-2.610;2023-11-18T14:37:27;8;6;
55276;PMS5003;41136;51.478;-2.610;2023-11-18T14:39:52;6;6;
55276;PMS5003;41136;51.478;-2.610;2023-11-18T14:42:18;8;7;
55276;PMS5003;41136;51.478;-2.610;2023-11-18T14:44:43;10;5;
55276;PMS5003;41136;51.478;-2.610;2023-11-18T14:47:08;9;7;
55276;PMS5003;41136;51.478;-2.610;2023-11-18T14:49:34;6;6;
55276;PMS5003;41136;51.478;-2.610;2023-11-18T14:52:00;7;5;
55276;PMS5003;41136;51.478;-2.610;2023-11-18T14:54:25;10;8;
55276;PMS5003;41136;51.478;-2.610;2023-11-18T14:56:51;4;4;
55276;PMS5003;41136;51.478;-2.610;2023-11-18T14:59:16;8;6;
55276;PMS5003;41136;51.478;-2.610;2023-11-18T15:01:41;2;2;
55276;PMS5003;41136;51.478;-2.610;2023-11-18T15:04:06;6;4;
55276;PMS5003;41136;51.478;-2.610;2023-11-18T15:06:32;8;5;
55276;PMS5003;41136;51.478;-2.610;2023-11-18T15:08:57;8;5;
55276;PMS5003;41136;51.478;-2.610;2023-11-18T15:11:23;5;5;
55276;PMS5003;41136;51.478;-2.610;2023-11-18T15:13:48;9;5;
55276;PMS5003;41136;51.478;-2.610;2023-11-18T15:16:13;8;4;
55276;PMS5003;41136;51.478;-2.610;2023-11-18T15:18:38;5;4;
55276;PMS5003;41136;51.478;-2.610;2023-11-18T15:21:03;5;5;
55276;PMS5003;41136;51.478;-2.610;2023-11-18T15:23:29;9;6;
55276;PMS5003;41136;51.478;-2.610;2023-11-18T15:25:54;4;4;
55276;PMS5003;41136;51.478;-2.610;2023-11-18T15:28:20;8;6;
55276;PMS5003;41136;51.478;-2.610;2023-11-18T15:30:46;7;7;
55276;PMS5003;41136;51.478;-2.610;2023-11-18T15:33:11;8;6;
55276;PMS5003;41136;51.478;-2.610;2023-11-18T15:35:37;9;5;
55276;PMS5003;41136;51.478;-2.610;2023-11-18T15:38:02;6;5;
55276;PMS5003;41136;51.478;-2.610;2023-11-18T15:40:27;10;5;
55276;PMS5003;41136;51.478;-2.610;2023-11-18T15:42:53;6;6;
55276;PMS5003;41136;51.478;-2.610;2023-11-18T15:45:19;4;4;
55276;PMS5003;41136;51.478;-2.610;2023-11-18T15:47:44;8;4;
55276;PMS5003;41136;51.478;-2.610;2023-11-18T15:50:10;7;4;
55276;PMS5003;41136;51.478;-2.610;2023-11-18T15:52:34;5;5;
55276;PMS5003;41136;51.478;-2.610;2023-11-18T15:55:00;7;6;
55276;PMS5003;41136;51.478;-2.610;2023-11-18T15:57:25;9;6;
55276;PMS5003;41136;51.478;-2.610;2023-11-18T15:59:50;4;4;
55276;PMS5003;41136;51.478;-2.610;2023-11-18T16:02:16;5;5;
55276;PMS5003;41136;51.478;-2.610;2023-11-18T16:04:41;5;5;
55276;PMS5003;41136;51.478;-2.610;2023-11-18T16:07:06;8;8;
55276;PMS5003;41136;51.478;-2.610;2023-11-18T16:09:32;6;5;
55276;PMS5003;41136;51.478;-2.610;2023-11-18T16:11:57;4;4;
55276;PMS5003;41136;51.478;-2.610;2023-11-18T16:14:22;6;5;
55276;PMS5003;41136;51.478;-2.610;2023-11-18T16:18:22;15;11;
55276;PMS5003;41136;51.478;-2.610;2023-11-18T16:20:48;12;12;
55276;PMS5003;41136;51.478;-2.610;2023-11-18T16:23:13;11;8;
55276;PMS5003;41136;51.478;-2.610;2023-11-18T16:25:38;8;5;
55276;PMS5003;41136;51.478;-2.610;2023-11-18T16:28:04;8;5;
55276;PMS5003;41136;51.478;-2.610;2023-11-18T16:30:30;7;7;
55276;PMS5003;41136;51.478;-2.610;2023-11-18T16:32:56;16;11;
55276;PMS5003;41136;51.478;-2.610;2023-11-18T16:35:21;8;7;
55276;PMS5003;41136;51.478;-2.610;2023-11-18T16:37:47;9;7;
55276;PMS5003;41136;51.478;-2.610;2023-11-18T16:40:12;8;8;
55276;PMS5003;41136;51.478;-2.610;2023-11-18T16:42:38;7;5;
55276;PMS5003;41136;51.478;-2.610;2023-11-18T16:45:03;8;5;
55276;PMS5003;41136;51.478;-2.610;2023-11-18T16:47:29;7;5;
55276;PMS5003;41136;51.478;-2.610;2023-11-18T16:49:55;7;5;